sensor_id;sensor_type;location;lat;lon;timestamp;temperature;humidity
16666;DHT22;8446;50.998;6.250;2022-09-17T00:02:14;9.70;99.90
16666;DHT22;8446;50.998;6.250;2022-09-17T00:04:40;9.80;99.90
16666;DHT22;8446;50.998;6.250;2022-09-17T00:07:07;9.70;99.90
16666;DHT22;8446;50.998;6.250;2022-09-17T00:09:34;9.70;99.90
16666;DHT22;8446;50.998;6.250;2022-09-17T00:12:01;9.70;99.90
16666;DHT22;8446;50.998;6.250;2022-09-17T00:14:28;9.70;99.90
16666;DHT22;8446;50.998;6.250;2022-09-17T00:16:56;9.70;99.90
16666;DHT22;8446;50.998;6.250;2022-09-17T00:19:23;9.80;99.90
16666;DHT22;8446;50.998;6.250;2022-09-17T00:21:50;9.80;99.90
16666;DHT22;8446;50.998;6.250;2022-09-17T00:24:18;9.80;99.90
16666;DHT22;8446;50.998;6.250;2022-09-17T00:26:45;9.80;99.90
16666;DHT22;8446;50.998;6.250;2022-09-17T00:29:13;9.80;99.90
16666;DHT22;8446;50.998;6.250;2022-09-17T00:31:39;9.80;99.90
16666;DHT22;8446;50.998;6.250;2022-09-17T00:34:08;9.80;99.90
16666;DHT22;8446;50.998;6.250;2022-09-17T00:36:37;9.70;99.90
16666;DHT22;8446;50.998;6.250;2022-09-17T00:39:08;9.70;99.90
16666;DHT22;8446;50.998;6.250;2022-09-17T00:41:36;9.70;99.90
16666;DHT22;8446;50.998;6.250;2022-09-17T00:47:03;9.60;99.90
16666;DHT22;8446;50.998;6.250;2022-09-17T00:49:31;9.60;99.90
16666;DHT22;8446;50.998;6.250;2022-09-17T00:52:03;9.70;99.90
16666;DHT22;8446;50.998;6.250;2022-09-17T00:54:30;9.70;99.90
16666;DHT22;8446;50.998;6.250;2022-09-17T00:56:58;9.70;99.90
16666;DHT22;8446;50.998;6.250;2022-09-17T00:59:25;9.60;99.90
16666;DHT22;8446;50.998;6.250;2022-09-17T01:01:53;9.60;99.90
16666;DHT22;8446;50.998;6.250;2022-09-17T01:04:22;9.70;99.90
16666;DHT22;8446;50.998;6.250;2022-09-17T01:07:08;9.60;99.90
16666;DHT22;8446;50.998;6.250;2022-09-17T01:09:42;9.60;99.90
16666;DHT22;8446;50.998;6.250;2022-09-17T01:12:25;9.60;99.90
16666;DHT22;8446;50.998;6.250;2022-09-17T01:15:06;9.60;99.90
16666;DHT22;8446;50.998;6.250;2022-09-17T01:17:39;9.70;99.90
16666;DHT22;8446;50.998;6.250;2022-09-17T01:20:33;9.60;99.90
16666;DHT22;8446;50.998;6.250;2022-09-17T01:26:10;9.60;99.90
16666;DHT22;8446;50.998;6.250;2022-09-17T01:28:43;9.60;99.90
16666;DHT22;8446;50.998;6.250;2022-09-17T01:31:24;9.60;99.90
16666;DHT22;8446;50.998;6.250;2022-09-17T01:34:00;9.60;99.90
16666;DHT22;8446;50.998;6.250;2022-09-17T01:36:41;9.70;99.90
16666;DHT22;8446;50.998;6.250;2022-09-17T01:39:17;9.70;99.90
16666;DHT22;8446;50.998;6.250;2022-09-17T01:41:51;9.60;99.90
16666;DHT22;8446;50.998;6.250;2022-09-17T01:44:24;9.60;99.90
16666;DHT22;8446;50.998;6.250;2022-09-17T01:46:58;9.60;99.90
16666;DHT22;8446;50.998;6.250;2022-09-17T01:49:29;9.60;99.90
16666;DHT22;8446;50.998;6.250;2022-09-17T01:51:57;9.60;99.90
16666;DHT22;8446;50.998;6.250;2022-09-17T01:54:29;9.60;99.90
16666;DHT22;8446;50.998;6.250;2022-09-17T01:57:00;9.60;99.90
16666;DHT22;8446;50.998;6.250;2022-09-17T01:59:30;9.60;99.90
16666;DHT22;8446;50.998;6.250;2022-09-17T02:02:06;9.70;99.90
16666;DHT22;8446;50.998;6.250;2022-09-17T02:04:37;9.80;99.90
16666;DHT22;8446;50.998;6.250;2022-09-17T02:07:09;9.80;99.90
16666;DHT22;8446;50.998;6.250;2022-09-17T02:09:42;9.80;99.90
16666;DHT22;8446;50.998;6.250;2022-09-17T02:12:11;9.80;99.90
16666;DHT22;8446;50.998;6.250;2022-09-17T02:14:46;9.80;99.90
16666;DHT22;8446;50.998;6.250;2022-09-17T02:17:19;9.80;99.90
16666;DHT22;8446;50.998;6.250;2022-09-17T02:19:47;9.80;99.90
16666;DHT22;8446;50.998;6.250;2022-09-17T02:22:20;9.80;99.90
16666;DHT22;8446;50.998;6.250;2022-09-17T02:24:55;9.80;99.90
16666;DHT22;8446;50.998;6.250;2022-09-17T02:27:33;9.80;99.90
16666;DHT22;8446;50.998;6.250;2022-09-17T02:30:03;9.80;99.90
16666;DHT22;8446;50.998;6.250;2022-09-17T02:32:32;9.80;99.90
16666;DHT22;8446;50.998;6.250;2022-09-17T02:34:59;9.80;99.90
16666;DHT22;8446;50.998;6.250;2022-09-17T02:37:26;9.80;99.90
16666;DHT22;8446;50.998;6.250;2022-09-17T02:39:54;9.70;99.90
16666;DHT22;8446;50.998;6.250;2022-09-17T02:42:26;9.70;99.90
16666;DHT22;8446;50.998;6.250;2022-09-17T02:44:59;9.70;99.90
16666;DHT22;8446;50.998;6.250;2022-09-17T02:48:09;9.80;99.90
16666;DHT22;8446;50.998;6.250;2022-09-17T02:53:50;9.70;99.90
16666;DHT22;8446;50.998;6.250;2022-09-17T02:56:27;9.80;99.90
16666;DHT22;8446;50.998;6.250;2022-09-17T02:59:03;9.90;99.90
16666;DHT22;8446;50.998;6.250;2022-09-17T03:01:39;10.00;99.90
16666;DHT22;8446;50.998;6.250;2022-09-17T03:04:09;10.00;99.90
16666;DHT22;8446;50.998;6.250;2022-09-17T03:06:39;10.00;99.90
16666;DHT22;8446;50.998;6.250;2022-09-17T03:09:06;10.00;99.90
16666;DHT22;8446;50.998;6.250;2022-09-17T03:11:32;10.00;99.90
16666;DHT22;8446;50.998;6.250;2022-09-17T03:13:59;10.00;99.90
16666;DHT22;8446;50.998;6.250;2022-09-17T03:16:26;10.00;99.90
16666;DHT22;8446;50.998;6.250;2022-09-17T03:18:53;10.00;99.90
16666;DHT22;8446;50.998;6.250;2022-09-17T03:21:21;10.00;99.90
16666;DHT22;8446;50.998;6.250;2022-09-17T03:23:47;9.90;99.90
16666;DHT22;8446;50.998;6.250;2022-09-17T03:26:14;9.90;99.90
16666;DHT22;8446;50.998;6.250;2022-09-17T03:28:41;9.90;99.90
16666;DHT22;8446;50.998;6.250;2022-09-17T03:31:08;9.90;99.90
16666;DHT22;8446;50.998;6.250;2022-09-17T03:33:34;10.00;99.90
16666;DHT22;8446;50.998;6.250;2022-09-17T03:36:01;10.00;99.90
16666;DHT22;8446;50.998;6.250;2022-09-17T03:38:29;9.90;99.90
16666;DHT22;8446;50.998;6.250;2022-09-17T03:40:58;10.00;99.90
16666;DHT22;8446;50.998;6.250;2022-09-17T03:43:25;10.00;99.90
16666;DHT22;8446;50.998;6.250;2022-09-17T03:45:52;10.00;99.90
16666;DHT22;8446;50.998;6.250;2022-09-17T03:48:19;10.00;99.90
16666;DHT22;8446;50.998;6.250;2022-09-17T03:50:46;10.00;99.90
16666;DHT22;8446;50.998;6.250;2022-09-17T03:53:12;10.10;99.90
16666;DHT22;8446;50.998;6.250;2022-09-17T03:55:41;10.10;99.90
16666;DHT22;8446;50.998;6.250;2022-09-17T03:58:08;10.10;99.90
16666;DHT22;8446;50.998;6.250;2022-09-17T04:00:34;10.10;99.90
16666;DHT22;8446;50.998;6.250;2022-09-17T04:03:02;10.10;99.90
16666;DHT22;8446;50.998;6.250;2022-09-17T04:05:29;10.00;99.90
16666;DHT22;8446;50.998;6.250;2022-09-17T04:07:55;10.00;99.90
16666;DHT22;8446;50.998;6.250;2022-09-17T04:10:22;10.00;99.90
16666;DHT22;8446;50.998;6.250;2022-09-17T04:12:50;10.00;99.90
16666;DHT22;8446;50.998;6.250;2022-09-17T04:15:17;10.00;99.90
16666;DHT22;8446;50.998;6.250;2022-09-17T04:17:44;9.80;99.90
16666;DHT22;8446;50.998;6.250;2022-09-17T04:20:10;9.90;99.90
16666;DHT22;8446;50.998;6.250;2022-09-17T04:22:37;9.90;99.90
16666;DHT22;8446;50.998;6.250;2022-09-17T04:25:05;9.90;99.90
16666;DHT22;8446;50.998;6.250;2022-09-17T04:27:32;9.90;99.90
16666;DHT22;8446;50.998;6.250;2022-09-17T04:30:00;9.90;99.90
16666;DHT22;8446;50.998;6.250;2022-09-17T04:32:27;10.00;99.90
16666;DHT22;8446;50.998;6.250;2022-09-17T04:34:54;10.00;99.90
16666;DHT22;8446;50.998;6.250;2022-09-17T04:37:20;10.10;99.90
16666;DHT22;8446;50.998;6.250;2022-09-17T04:39:48;10.10;99.90
16666;DHT22;8446;50.998;6.250;2022-09-17T04:42:15;10.20;99.90
16666;DHT22;8446;50.998;6.250;2022-09-17T04:44:42;10.20;99.90
16666;DHT22;8446;50.998;6.250;2022-09-17T04:47:10;10.10;99.90
16666;DHT22;8446;50.998;6.250;2022-09-17T04:49:37;10.10;99.90
16666;DHT22;8446;50.998;6.250;2022-09-17T04:52:04;10.10;99.90
16666;DHT22;8446;50.998;6.250;2022-09-17T04:54:31;10.10;99.90
16666;DHT22;8446;50.998;6.250;2022-09-17T04:56:58;10.10;99.90
16666;DHT22;8446;50.998;6.250;2022-09-17T04:59:25;10.00;99.90
16666;DHT22;8446;50.998;6.250;2022-09-17T05:01:52;10.00;99.90
16666;DHT22;8446;50.998;6.250;2022-09-17T05:04:20;10.00;99.90
16666;DHT22;8446;50.998;6.250;2022-09-17T05:06:47;10.10;99.90
16666;DHT22;8446;50.998;6.250;2022-09-17T05:09:14;10.10;99.90
16666;DHT22;8446;50.998;6.250;2022-09-17T05:11:41;10.00;99.90
16666;DHT22;8446;50.998;6.250;2022-09-17T05:14:08;10.00;99.90
16666;DHT22;8446;50.998;6.250;2022-09-17T05:16:35;10.00;99.90
16666;DHT22;8446;50.998;6.250;2022-09-17T05:19:02;10.00;99.90
16666;DHT22;8446;50.998;6.250;2022-09-17T05:21:30;10.00;99.90
16666;DHT22;8446;50.998;6.250;2022-09-17T05:23:57;10.00;99.90
16666;DHT22;8446;50.998;6.250;2022-09-17T05:26:23;10.10;99.90
16666;DHT22;8446;50.998;6.250;2022-09-17T05:28:50;10.10;99.90
16666;DHT22;8446;50.998;6.250;2022-09-17T05:31:17;10.10;99.90
16666;DHT22;8446;50.998;6.250;2022-09-17T05:33:44;10.10;99.90
16666;DHT22;8446;50.998;6.250;2022-09-17T05:36:10;10.20;99.90
16666;DHT22;8446;50.998;6.250;2022-09-17T05:38:38;10.20;99.90
16666;DHT22;8446;50.998;6.250;2022-09-17T05:41:05;10.20;99.90
16666;DHT22;8446;50.998;6.250;2022-09-17T05:43:32;10.20;99.90
16666;DHT22;8446;50.998;6.250;2022-09-17T05:46:03;10.20;99.90
16666;DHT22;8446;50.998;6.250;2022-09-17T05:48:30;10.30;99.90
16666;DHT22;8446;50.998;6.250;2022-09-17T05:50:57;10.20;99.90
16666;DHT22;8446;50.998;6.250;2022-09-17T05:53:23;10.20;99.90
16666;DHT22;8446;50.998;6.250;2022-09-17T05:55:55;10.10;99.90
16666;DHT22;8446;50.998;6.250;2022-09-17T05:58:22;10.10;99.90
16666;DHT22;8446;50.998;6.250;2022-09-17T06:00:49;10.10;99.90
16666;DHT22;8446;50.998;6.250;2022-09-17T06:03:17;10.10;99.90
16666;DHT22;8446;50.998;6.250;2022-09-17T06:05:52;10.20;99.90
16666;DHT22;8446;50.998;6.250;2022-09-17T06:08:19;10.20;99.90
16666;DHT22;8446;50.998;6.250;2022-09-17T06:10:45;10.20;99.90
16666;DHT22;8446;50.998;6.250;2022-09-17T06:13:14;10.20;99.90
16666;DHT22;8446;50.998;6.250;2022-09-17T06:15:40;10.20;99.90
16666;DHT22;8446;50.998;6.250;2022-09-17T06:18:08;10.20;99.90
16666;DHT22;8446;50.998;6.250;2022-09-17T06:20:34;10.10;99.90
16666;DHT22;8446;50.998;6.250;2022-09-17T06:23:01;10.10;99.90
16666;DHT22;8446;50.998;6.250;2022-09-17T06:25:28;10.10;99.90
16666;DHT22;8446;50.998;6.250;2022-09-17T06:27:56;10.10;99.90
16666;DHT22;8446;50.998;6.250;2022-09-17T06:30:24;10.10;99.90
16666;DHT22;8446;50.998;6.250;2022-09-17T06:32:51;10.10;99.90
16666;DHT22;8446;50.998;6.250;2022-09-17T06:35:17;10.10;99.90
16666;DHT22;8446;50.998;6.250;2022-09-17T06:37:44;10.10;99.90
16666;DHT22;8446;50.998;6.250;2022-09-17T06:40:11;10.10;99.90
16666;DHT22;8446;50.998;6.250;2022-09-17T06:42:38;10.20;99.90
16666;DHT22;8446;50.998;6.250;2022-09-17T06:45:06;10.30;99.90
16666;DHT22;8446;50.998;6.250;2022-09-17T06:47:34;10.30;99.90
16666;DHT22;8446;50.998;6.250;2022-09-17T06:50:01;10.40;99.90
16666;DHT22;8446;50.998;6.250;2022-09-17T06:52:28;10.40;99.90
16666;DHT22;8446;50.998;6.250;2022-09-17T06:54:54;10.60;99.90
16666;DHT22;8446;50.998;6.250;2022-09-17T06:57:22;10.80;99.90
16666;DHT22;8446;50.998;6.250;2022-09-17T06:59:49;10.90;99.90
16666;DHT22;8446;50.998;6.250;2022-09-17T07:02:16;10.90;99.90
16666;DHT22;8446;50.998;6.250;2022-09-17T07:04:44;10.90;99.90
16666;DHT22;8446;50.998;6.250;2022-09-17T07:07:11;10.80;99.90
16666;DHT22;8446;50.998;6.250;2022-09-17T07:09:38;10.90;99.90
16666;DHT22;8446;50.998;6.250;2022-09-17T07:12:07;11.00;99.90
16666;DHT22;8446;50.998;6.250;2022-09-17T07:14:34;11.10;99.90
16666;DHT22;8446;50.998;6.250;2022-09-17T07:17:00;11.20;99.90
16666;DHT22;8446;50.998;6.250;2022-09-17T07:19:27;11.20;99.90
16666;DHT22;8446;50.998;6.250;2022-09-17T07:21:55;11.30;99.90
16666;DHT22;8446;50.998;6.250;2022-09-17T07:24:23;11.30;99.90
16666;DHT22;8446;50.998;6.250;2022-09-17T07:26:50;11.40;99.90
16666;DHT22;8446;50.998;6.250;2022-09-17T07:29:17;11.60;99.90
16666;DHT22;8446;50.998;6.250;2022-09-17T07:31:45;11.90;99.90
16666;DHT22;8446;50.998;6.250;2022-09-17T07:34:11;11.90;99.90
16666;DHT22;8446;50.998;6.250;2022-09-17T07:36:38;12.00;99.90
16666;DHT22;8446;50.998;6.250;2022-09-17T07:39:06;11.90;99.90
16666;DHT22;8446;50.998;6.250;2022-09-17T07:41:34;11.90;99.90
16666;DHT22;8446;50.998;6.250;2022-09-17T07:44:01;11.80;99.90
16666;DHT22;8446;50.998;6.250;2022-09-17T07:46:28;11.90;99.90
16666;DHT22;8446;50.998;6.250;2022-09-17T07:48:55;11.90;99.90
16666;DHT22;8446;50.998;6.250;2022-09-17T07:51:24;11.90;99.90
16666;DHT22;8446;50.998;6.250;2022-09-17T07:53:54;11.90;99.90
16666;DHT22;8446;50.998;6.250;2022-09-17T07:56:24;11.80;99.90
16666;DHT22;8446;50.998;6.250;2022-09-17T07:58:51;11.80;99.90
16666;DHT22;8446;50.998;6.250;2022-09-17T08:01:19;11.90;99.90
16666;DHT22;8446;50.998;6.250;2022-09-17T08:03:48;11.90;99.90
16666;DHT22;8446;50.998;6.250;2022-09-17T08:06:17;12.00;99.90
16666;DHT22;8446;50.998;6.250;2022-09-17T08:08:44;11.90;99.90
16666;DHT22;8446;50.998;6.250;2022-09-17T08:11:13;11.90;99.90
16666;DHT22;8446;50.998;6.250;2022-09-17T08:13:42;11.90;99.90
16666;DHT22;8446;50.998;6.250;2022-09-17T08:16:11;12.00;99.90
16666;DHT22;8446;50.998;6.250;2022-09-17T08:18:39;11.90;99.90
16666;DHT22;8446;50.998;6.250;2022-09-17T08:21:08;11.90;99.90
16666;DHT22;8446;50.998;6.250;2022-09-17T08:23:36;11.70;99.90
16666;DHT22;8446;50.998;6.250;2022-09-17T08:26:04;11.80;99.90
16666;DHT22;8446;50.998;6.250;2022-09-17T08:28:33;12.20;99.90
16666;DHT22;8446;50.998;6.250;2022-09-17T08:31:04;12.10;99.90
16666;DHT22;8446;50.998;6.250;2022-09-17T08:33:31;12.10;99.90
16666;DHT22;8446;50.998;6.250;2022-09-17T08:35:58;12.30;99.90
16666;DHT22;8446;50.998;6.250;2022-09-17T08:38:26;12.50;99.90
16666;DHT22;8446;50.998;6.250;2022-09-17T08:41:05;12.90;99.90
16666;DHT22;8446;50.998;6.250;2022-09-17T08:43:44;13.00;99.90
16666;DHT22;8446;50.998;6.250;2022-09-17T08:46:13;12.90;99.90
16666;DHT22;8446;50.998;6.250;2022-09-17T08:48:42;12.90;99.90
16666;DHT22;8446;50.998;6.250;2022-09-17T08:51:21;13.00;99.90
16666;DHT22;8446;50.998;6.250;2022-09-17T08:53:57;13.30;99.90
16666;DHT22;8446;50.998;6.250;2022-09-17T08:56:29;13.50;99.90
16666;DHT22;8446;50.998;6.250;2022-09-17T08:59:13;13.60;99.90
16666;DHT22;8446;50.998;6.250;2022-09-17T09:01:49;13.60;99.90
16666;DHT22;8446;50.998;6.250;2022-09-17T09:04:34;13.90;99.90
16666;DHT22;8446;50.998;6.250;2022-09-17T09:07:07;13.90;99.90
16666;DHT22;8446;50.998;6.250;2022-09-17T09:09:37;13.80;99.90
16666;DHT22;8446;50.998;6.250;2022-09-17T09:12:14;13.90;99.90
16666;DHT22;8446;50.998;6.250;2022-09-17T09:14:47;13.60;99.90
16666;DHT22;8446;50.998;6.250;2022-09-17T09:17:18;13.50;99.90
16666;DHT22;8446;50.998;6.250;2022-09-17T09:19:47;13.30;99.90
16666;DHT22;8446;50.998;6.250;2022-09-17T09:22:29;13.20;99.90
16666;DHT22;8446;50.998;6.250;2022-09-17T09:25:04;13.10;99.90
16666;DHT22;8446;50.998;6.250;2022-09-17T09:27:37;13.30;99.90
16666;DHT22;8446;50.998;6.250;2022-09-17T09:30:11;13.40;99.90
16666;DHT22;8446;50.998;6.250;2022-09-17T09:32:50;13.20;99.90
16666;DHT22;8446;50.998;6.250;2022-09-17T09:35:19;13.20;99.90
16666;DHT22;8446;50.998;6.250;2022-09-17T09:37:54;13.50;99.90
16666;DHT22;8446;50.998;6.250;2022-09-17T09:40:32;13.70;99.90
16666;DHT22;8446;50.998;6.250;2022-09-17T09:43:03;13.90;99.90
16666;DHT22;8446;50.998;6.250;2022-09-17T09:45:46;14.10;99.90
16666;DHT22;8446;50.998;6.250;2022-09-17T09:48:23;13.90;99.90
16666;DHT22;8446;50.998;6.250;2022-09-17T09:51:07;13.80;99.90
16666;DHT22;8446;50.998;6.250;2022-09-17T09:53:44;13.80;99.90
16666;DHT22;8446;50.998;6.250;2022-09-17T09:56:27;13.90;99.90
16666;DHT22;8446;50.998;6.250;2022-09-17T09:58:58;13.60;99.90
16666;DHT22;8446;50.998;6.250;2022-09-17T10:01:26;13.40;99.90
16666;DHT22;8446;50.998;6.250;2022-09-17T10:03:55;13.30;99.90
16666;DHT22;8446;50.998;6.250;2022-09-17T10:06:24;13.20;99.90
16666;DHT22;8446;50.998;6.250;2022-09-17T10:09:11;13.20;99.90
16666;DHT22;8446;50.998;6.250;2022-09-17T10:11:38;13.10;99.90
16666;DHT22;8446;50.998;6.250;2022-09-17T10:14:23;13.10;99.90
16666;DHT22;8446;50.998;6.250;2022-09-17T10:17:10;13.20;99.90
16666;DHT22;8446;50.998;6.250;2022-09-17T10:19:39;13.10;99.90
16666;DHT22;8446;50.998;6.250;2022-09-17T10:22:18;13.20;99.90
16666;DHT22;8446;50.998;6.250;2022-09-17T10:24:49;14.00;99.90
16666;DHT22;8446;50.998;6.250;2022-09-17T10:27:18;14.40;99.90
16666;DHT22;8446;50.998;6.250;2022-09-17T10:29:49;14.40;99.90
16666;DHT22;8446;50.998;6.250;2022-09-17T10:32:17;14.40;99.90
16666;DHT22;8446;50.998;6.250;2022-09-17T10:34:58;14.50;99.90
16666;DHT22;8446;50.998;6.250;2022-09-17T10:37:34;14.40;99.90
16666;DHT22;8446;50.998;6.250;2022-09-17T10:40:25;14.60;99.90
16666;DHT22;8446;50.998;6.250;2022-09-17T10:43:16;14.90;99.90
16666;DHT22;8446;50.998;6.250;2022-09-17T10:45:45;14.80;99.90
16666;DHT22;8446;50.998;6.250;2022-09-17T10:48:20;14.90;99.90
16666;DHT22;8446;50.998;6.250;2022-09-17T10:50:51;14.40;99.90
16666;DHT22;8446;50.998;6.250;2022-09-17T10:53:19;14.00;99.90
16666;DHT22;8446;50.998;6.250;2022-09-17T10:55:49;13.60;99.90
16666;DHT22;8446;50.998;6.250;2022-09-17T10:58:26;13.60;99.90
16666;DHT22;8446;50.998;6.250;2022-09-17T11:01:04;13.60;99.90
16666;DHT22;8446;50.998;6.250;2022-09-17T11:04:20;13.40;99.90
16666;DHT22;8446;50.998;6.250;2022-09-17T11:07:13;13.20;99.90
16666;DHT22;8446;50.998;6.250;2022-09-17T11:09:51;13.40;99.90
16666;DHT22;8446;50.998;6.250;2022-09-17T11:12:27;13.80;99.90
16666;DHT22;8446;50.998;6.250;2022-09-17T11:15:00;14.40;99.90
16666;DHT22;8446;50.998;6.250;2022-09-17T11:17:45;14.70;99.90
16666;DHT22;8446;50.998;6.250;2022-09-17T11:20:23;14.70;99.90
16666;DHT22;8446;50.998;6.250;2022-09-17T11:23:05;14.70;99.90
16666;DHT22;8446;50.998;6.250;2022-09-17T11:25:42;14.70;99.90
16666;DHT22;8446;50.998;6.250;2022-09-17T11:28:25;14.30;99.90
16666;DHT22;8446;50.998;6.250;2022-09-17T11:31:04;13.70;99.90
16666;DHT22;8446;50.998;6.250;2022-09-17T11:36:43;11.90;99.90
16666;DHT22;8446;50.998;6.250;2022-09-17T11:39:16;11.80;99.90
16666;DHT22;8446;50.998;6.250;2022-09-17T11:41:45;12.00;99.90
16666;DHT22;8446;50.998;6.250;2022-09-17T11:44:19;12.10;99.90
16666;DHT22;8446;50.998;6.250;2022-09-17T11:46:50;12.20;99.90
16666;DHT22;8446;50.998;6.250;2022-09-17T11:49:24;12.80;99.90
16666;DHT22;8446;50.998;6.250;2022-09-17T11:51:57;12.60;99.90
16666;DHT22;8446;50.998;6.250;2022-09-17T11:54:28;12.70;99.90
16666;DHT22;8446;50.998;6.250;2022-09-17T11:57:03;13.00;99.90
16666;DHT22;8446;50.998;6.250;2022-09-17T11:59:34;13.20;99.90
16666;DHT22;8446;50.998;6.250;2022-09-17T12:02:05;13.40;99.90
16666;DHT22;8446;50.998;6.250;2022-09-17T12:04:42;13.50;99.90
16666;DHT22;8446;50.998;6.250;2022-09-17T12:07:18;13.70;99.90
16666;DHT22;8446;50.998;6.250;2022-09-17T12:09:55;13.70;99.90
16666;DHT22;8446;50.998;6.250;2022-09-17T12:12:24;13.80;99.90
16666;DHT22;8446;50.998;6.250;2022-09-17T12:14:55;14.00;99.90
16666;DHT22;8446;50.998;6.250;2022-09-17T12:17:26;14.20;99.90
16666;DHT22;8446;50.998;6.250;2022-09-17T12:19:58;13.70;99.90
16666;DHT22;8446;50.998;6.250;2022-09-17T12:22:29;13.70;99.90
16666;DHT22;8446;50.998;6.250;2022-09-17T12:25:00;13.60;99.90
16666;DHT22;8446;50.998;6.250;2022-09-17T12:27:35;13.60;99.90
16666;DHT22;8446;50.998;6.250;2022-09-17T12:30:07;13.60;99.90
16666;DHT22;8446;50.998;6.250;2022-09-17T12:38:30;13.80;99.90
16666;DHT22;8446;50.998;6.250;2022-09-17T12:41:08;13.70;99.90
16666;DHT22;8446;50.998;6.250;2022-09-17T12:43:50;13.70;99.90
16666;DHT22;8446;50.998;6.250;2022-09-17T12:46:32;13.70;99.90
16666;DHT22;8446;50.998;6.250;2022-09-17T12:52:00;13.40;99.90
16666;DHT22;8446;50.998;6.250;2022-09-17T12:57:34;13.60;99.90
16666;DHT22;8446;50.998;6.250;2022-09-17T13:00:07;13.70;99.90
16666;DHT22;8446;50.998;6.250;2022-09-17T13:02:39;13.60;99.90
16666;DHT22;8446;50.998;6.250;2022-09-17T13:05:27;13.30;99.90
16666;DHT22;8446;50.998;6.250;2022-09-17T13:08:09;13.40;99.90
16666;DHT22;8446;50.998;6.250;2022-09-17T13:13:36;13.90;99.90
16666;DHT22;8446;50.998;6.250;2022-09-17T13:16:11;13.90;99.90
16666;DHT22;8446;50.998;6.250;2022-09-17T13:18:44;13.90;99.90
16666;DHT22;8446;50.998;6.250;2022-09-17T13:21:16;14.10;99.90
16666;DHT22;8446;50.998;6.250;2022-09-17T13:23:44;14.20;99.90
16666;DHT22;8446;50.998;6.250;2022-09-17T13:26:14;14.30;99.90
16666;DHT22;8446;50.998;6.250;2022-09-17T13:28:46;14.40;99.90
16666;DHT22;8446;50.998;6.250;2022-09-17T13:31:18;14.50;99.90
16666;DHT22;8446;50.998;6.250;2022-09-17T13:33:57;14.30;99.90
16666;DHT22;8446;50.998;6.250;2022-09-17T13:36:44;13.80;99.90
16666;DHT22;8446;50.998;6.250;2022-09-17T13:39:38;13.60;99.90
16666;DHT22;8446;50.998;6.250;2022-09-17T13:42:08;13.80;99.90
16666;DHT22;8446;50.998;6.250;2022-09-17T13:44:40;14.10;99.90
16666;DHT22;8446;50.998;6.250;2022-09-17T13:47:17;14.20;99.90
16666;DHT22;8446;50.998;6.250;2022-09-17T13:49:47;14.40;99.90
16666;DHT22;8446;50.998;6.250;2022-09-17T13:52:31;14.50;99.90
16666;DHT22;8446;50.998;6.250;2022-09-17T13:54:59;14.60;99.90
16666;DHT22;8446;50.998;6.250;2022-09-17T13:57:27;14.60;99.90
16666;DHT22;8446;50.998;6.250;2022-09-17T13:59:58;14.70;99.90
16666;DHT22;8446;50.998;6.250;2022-09-17T14:05:31;15.30;99.90
16666;DHT22;8446;50.998;6.250;2022-09-17T14:08:23;15.60;99.90
16666;DHT22;8446;50.998;6.250;2022-09-17T14:10:59;15.80;99.90
16666;DHT22;8446;50.998;6.250;2022-09-17T14:13:42;15.40;99.90
16666;DHT22;8446;50.998;6.250;2022-09-17T14:16:43;15.30;99.90
16666;DHT22;8446;50.998;6.250;2022-09-17T14:19:32;15.30;99.90
16666;DHT22;8446;50.998;6.250;2022-09-17T14:22:11;15.20;99.90
16666;DHT22;8446;50.998;6.250;2022-09-17T14:24:45;15.40;99.90
16666;DHT22;8446;50.998;6.250;2022-09-17T14:27:18;15.60;99.90
16666;DHT22;8446;50.998;6.250;2022-09-17T14:30:00;15.30;99.90
16666;DHT22;8446;50.998;6.250;2022-09-17T14:32:33;15.50;99.90
16666;DHT22;8446;50.998;6.250;2022-09-17T14:35:11;15.30;99.90
16666;DHT22;8446;50.998;6.250;2022-09-17T14:37:39;15.60;99.90
16666;DHT22;8446;50.998;6.250;2022-09-17T14:40:09;15.70;99.90
16666;DHT22;8446;50.998;6.250;2022-09-17T14:42:37;15.60;99.90
16666;DHT22;8446;50.998;6.250;2022-09-17T14:45:10;15.60;99.90
16666;DHT22;8446;50.998;6.250;2022-09-17T14:47:40;15.50;99.90
16666;DHT22;8446;50.998;6.250;2022-09-17T14:50:20;15.10;99.90
16666;DHT22;8446;50.998;6.250;2022-09-17T14:52:47;14.60;99.90
16666;DHT22;8446;50.998;6.250;2022-09-17T14:55:16;14.60;99.90
16666;DHT22;8446;50.998;6.250;2022-09-17T14:57:44;15.30;99.90
16666;DHT22;8446;50.998;6.250;2022-09-17T15:00:19;15.70;99.90
16666;DHT22;8446;50.998;6.250;2022-09-17T15:02:51;15.70;99.90
16666;DHT22;8446;50.998;6.250;2022-09-17T15:05:25;15.70;99.90
16666;DHT22;8446;50.998;6.250;2022-09-17T15:08:05;15.50;99.90
16666;DHT22;8446;50.998;6.250;2022-09-17T15:10:34;15.40;99.90
16666;DHT22;8446;50.998;6.250;2022-09-17T15:13:01;15.80;99.90
16666;DHT22;8446;50.998;6.250;2022-09-17T15:15:28;15.80;99.90
16666;DHT22;8446;50.998;6.250;2022-09-17T15:17:57;15.80;99.90
16666;DHT22;8446;50.998;6.250;2022-09-17T15:20:27;15.70;99.90
16666;DHT22;8446;50.998;6.250;2022-09-17T15:23:00;15.20;99.90
16666;DHT22;8446;50.998;6.250;2022-09-17T15:25:33;15.00;99.90
16666;DHT22;8446;50.998;6.250;2022-09-17T15:30:49;15.20;99.90
16666;DHT22;8446;50.998;6.250;2022-09-17T15:33:17;14.90;99.90
16666;DHT22;8446;50.998;6.250;2022-09-17T15:35:58;14.80;99.90
16666;DHT22;8446;50.998;6.250;2022-09-17T15:38:27;14.80;99.90
16666;DHT22;8446;50.998;6.250;2022-09-17T15:40:54;14.90;99.90
16666;DHT22;8446;50.998;6.250;2022-09-17T15:43:25;14.90;99.90
16666;DHT22;8446;50.998;6.250;2022-09-17T15:45:53;14.80;99.90
16666;DHT22;8446;50.998;6.250;2022-09-17T15:48:33;14.80;99.90
16666;DHT22;8446;50.998;6.250;2022-09-17T15:51:02;14.80;99.90
16666;DHT22;8446;50.998;6.250;2022-09-17T15:53:30;14.80;99.90
16666;DHT22;8446;50.998;6.250;2022-09-17T15:56:00;14.70;99.90
16666;DHT22;8446;50.998;6.250;2022-09-17T15:58:30;14.50;99.90
16666;DHT22;8446;50.998;6.250;2022-09-17T16:04:20;14.60;99.90
16666;DHT22;8446;50.998;6.250;2022-09-17T16:06:56;14.60;99.90
16666;DHT22;8446;50.998;6.250;2022-09-17T16:09:50;14.60;99.90
16666;DHT22;8446;50.998;6.250;2022-09-17T16:12:18;14.80;99.90
16666;DHT22;8446;50.998;6.250;2022-09-17T16:14:50;15.50;99.90
16666;DHT22;8446;50.998;6.250;2022-09-17T16:17:25;16.00;99.90
16666;DHT22;8446;50.998;6.250;2022-09-17T16:19:54;16.10;99.90
16666;DHT22;8446;50.998;6.250;2022-09-17T16:22:21;15.90;99.90
16666;DHT22;8446;50.998;6.250;2022-09-17T16:24:48;15.80;99.90
16666;DHT22;8446;50.998;6.250;2022-09-17T16:27:18;15.40;99.90
16666;DHT22;8446;50.998;6.250;2022-09-17T16:29:47;14.90;99.90
16666;DHT22;8446;50.998;6.250;2022-09-17T16:32:14;14.50;99.90
16666;DHT22;8446;50.998;6.250;2022-09-17T16:34:40;14.40;99.90
16666;DHT22;8446;50.998;6.250;2022-09-17T16:37:09;14.50;99.90
16666;DHT22;8446;50.998;6.250;2022-09-17T16:39:36;14.30;99.90
16666;DHT22;8446;50.998;6.250;2022-09-17T16:42:03;14.30;99.90
16666;DHT22;8446;50.998;6.250;2022-09-17T16:44:30;14.10;99.90
16666;DHT22;8446;50.998;6.250;2022-09-17T16:46:56;14.00;99.90
16666;DHT22;8446;50.998;6.250;2022-09-17T16:49:23;13.90;99.90
16666;DHT22;8446;50.998;6.250;2022-09-17T16:51:50;13.90;99.90
16666;DHT22;8446;50.998;6.250;2022-09-17T16:54:18;13.90;99.90